Time;durP1;ratioP1;P1;durP2;ratioP2;P2;SDS_P1;SDS_P2;PMS_P1;PMS_P2;Temp;Humidity;BMP_temperature;BMP_pressure;BME280_temperature;BME280_humidity;BME280_pressure;Samples;Min_cycle;Max_cycle;Signal;HPM_P1;HPM_P2
2021/06/17 00:00:15;;;;;;;8.32;5.88;;;;;;;19.23;64.28;99000.63;5016077;28;20042;-63
2021/06/17 00:02:40;;;;;;;10.73;6.22;;;;;;;19.30;63.38;98995.56;5016348;28;20114;-62
2021/06/17 00:05:07;;;;;;;13.52;6.40;;;;;;;19.37;62.77;98991.31;5014843;28;20022;-62
2021/06/17 00:07:32;;;;;;;10.90;6.30;;;;;;;19.34;63.66;98997.34;5016759;28;20022;-62
2021/06/17 00:09:58;;;;;;;9.32;6.55;;;;;;;19.21;63.72;98986.53;5016460;28;20027;-63
2021/06/17 00:12:23;;;;;;;10.68;6.40;;;;;;;19.30;64.13;98990.13;5014723;28;20069;-62
2021/06/17 00:14:49;;;;;;;10.60;5.65;;;;;;;19.36;64.13;98991.63;5016333;28;20421;-62
2021/06/17 00:17:14;;;;;;;7.30;5.53;;;;;;;19.37;63.83;98990.53;5015957;28;20045;-62
2021/06/17 00:19:39;;;;;;;11.10;6.20;;;;;;;19.27;63.91;98996.16;5015018;28;20026;-62
2021/06/17 00:22:05;;;;;;;7.60;6.22;;;;;;;19.15;65.40;98994.00;5015815;28;20046;-62
2021/06/17 00:24:30;;;;;;;7.93;6.65;;;;;;;19.03;65.68;98997.22;5016209;28;20029;-62
2021/06/17 00:26:56;;;;;;;14.07;6.18;;;;;;;19.05;65.56;98992.28;5015650;28;20034;-62
2021/06/17 00:29:22;;;;;;;12.20;6.75;;;;;;;18.99;65.71;98988.06;5016078;28;20018;-62
2021/06/17 00:31:47;;;;;;;11.55;6.43;;;;;;;19.02;66.07;98990.19;5015460;28;20484;-62
2021/06/17 00:34:13;;;;;;;11.55;6.72;;;;;;;18.94;66.20;98990.88;5016268;28;20033;-62
2021/06/17 00:36:38;;;;;;;9.00;6.80;;;;;;;18.89;65.95;98985.56;5015714;28;20437;-62
2021/06/17 00:39:05;;;;;;;8.57;6.70;;;;;;;18.82;66.28;98979.72;5016202;28;20033;-62
2021/06/17 00:41:30;;;;;;;10.50;6.63;;;;;;;18.61;67.72;98985.53;5015502;28;20081;-62
2021/06/17 00:43:56;;;;;;;11.05;6.00;;;;;;;18.72;66.66;98989.69;5015780;28;20330;-62
2021/06/17 00:46:21;;;;;;;9.38;6.50;;;;;;;18.70;67.55;98989.16;4998104;28;20042;-62
2021/06/17 00:48:47;;;;;;;10.23;6.47;;;;;;;18.63;68.10;98972.47;5015859;28;20026;-62
2021/06/17 00:51:12;;;;;;;12.95;6.57;;;;;;;18.71;66.34;98971.75;5013962;28;20056;-62
2021/06/17 00:53:38;;;;;;;10.32;6.70;;;;;;;18.67;67.14;98965.34;5015744;28;20084;-62
2021/06/17 00:56:03;;;;;;;9.43;6.80;;;;;;;18.49;67.39;98961.59;5013959;28;20034;-62
2021/06/17 00:58:29;;;;;;;11.57;6.75;;;;;;;18.55;67.07;98954.19;5015528;28;20476;-62
2021/06/17 01:00:55;;;;;;;10.75;6.00;;;;;;;18.63;67.21;98953.47;5013555;28;20041;-62
2021/06/17 01:03:21;;;;;;;13.20;6.15;;;;;;;18.57;66.92;98951.16;5015588;28;20022;-62
2021/06/17 01:05:46;;;;;;;10.52;6.65;;;;;;;18.52;67.01;98950.16;5015277;28;20126;-62
2021/06/17 01:08:17;;;;;;;10.60;6.85;;;;;;;18.48;67.78;98953.78;5015262;28;20486;-62
2021/06/17 01:11:05;;;;;;;10.52;6.65;;;;;;;18.29;68.68;98954.66;4981527;28;20062;-62
2021/06/17 01:13:50;;;;;;;12.73;6.82;;;;;;;18.20;68.96;98944.81;5015475;28;20100;-62
2021/06/17 01:16:35;;;;;;;8.82;6.40;;;;;;;18.10;68.00;98940.38;5013551;28;20493;-62
2021/06/17 01:19:19;;;;;;;11.30;6.38;;;;;;;18.24;67.57;98943.09;5011013;28;20046;-62
2021/06/17 01:22:12;;;;;;;10.25;6.68;;;;;;;18.14;68.66;98944.09;5014702;28;20100;-62
2021/06/17 01:24:44;;;;;;;11.32;6.80;;;;;;;18.05;68.60;98941.28;5015134;28;20046;-62
2021/06/17 01:27:30;;;;;;;10.80;7.28;;;;;;;18.11;68.62;98945.50;5014589;28;20052;-62
2021/06/17 01:29:58;;;;;;;8.23;6.00;;;;;;;18.21;68.29;98954.56;5014938;28;20022;-62
2021/06/17 01:32:24;;;;;;;10.73;6.70;;;;;;;18.22;67.54;98951.56;5013224;28;20097;-62
2021/06/17 01:34:49;;;;;;;14.35;6.57;;;;;;;17.99;69.02;98947.09;5013829;28;20384;-62
2021/06/17 01:37:15;;;;;;;12.50;6.82;;;;;;;18.15;69.32;98945.72;4997059;28;20040;-62
2021/06/17 01:39:40;;;;;;;17.90;7.32;;;;;;;18.02;68.69;98941.06;4997206;28;20029;-62
2021/06/17 01:42:07;;;;;;;11.32;6.82;;;;;;;17.94;68.40;98947.97;4996683;28;20045;-62
2021/06/17 01:44:32;;;;;;;13.23;7.07;;;;;;;17.94;68.14;98958.03;5013474;28;20033;-62
2021/06/17 01:46:58;;;;;;;13.88;7.28;;;;;;;17.97;68.35;98943.84;5012946;28;20034;-64
2021/06/17 01:49:23;;;;;;;11.15;6.47;;;;;;;17.92;68.46;98946.66;5013540;28;20480;-62
2021/06/17 01:51:49;;;;;;;11.18;7.47;;;;;;;17.51;70.44;98952.72;4996420;28;20056;-63
2021/06/17 01:54:21;;;;;;;10.65;7.18;;;;;;;17.41;72.36;98959.91;4997091;28;20030;-63
2021/06/17 01:56:50;;;;;;;14.35;6.95;;;;;;;17.43;69.99;98963.13;4997559;28;20049;-62
2021/06/17 01:59:15;;;;;;;11.38;6.43;;;;;;;17.51;70.00;98968.97;5014232;28;20472;-62
2021/06/17 02:01:41;;;;;;;13.80;7.10;;;;;;;17.52;69.72;98971.38;4996024;28;20053;-62
2021/06/17 02:04:06;;;;;;;13.02;7.57;;;;;;;17.53;69.48;98962.16;4996665;28;20476;-62
2021/06/17 02:06:32;;;;;;;8.77;7.35;;;;;;;17.65;69.27;98965.25;4996361;28;20045;-63
2021/06/17 02:08:58;;;;;;;10.07;6.80;;;;;;;17.73;69.31;98961.03;5012572;28;20041;-62
2021/06/17 02:11:26;;;;;;;11.77;7.40;;;;;;;17.68;69.38;98961.13;5013622;28;20053;-62
2021/06/17 02:13:52;;;;;;;8.80;7.10;;;;;;;17.67;69.18;98956.78;5014108;28;20061;-62
2021/06/17 02:16:17;;;;;;;13.10;7.60;;;;;;;17.66;70.33;98958.69;5012431;28;20487;-62
2021/06/17 02:18:43;;;;;;;14.82;8.52;;;;;;;17.56;70.45;98955.34;4996640;28;20034;-62
2021/06/17 02:21:09;;;;;;;12.73;8.43;;;;;;;17.53;71.41;98950.53;4996302;28;20044;-62
2021/06/17 02:23:34;;;;;;;18.55;8.68;;;;;;;17.66;70.84;98949.78;5012872;28;20017;-62
2021/06/17 02:26:01;;;;;;;22.20;8.55;;;;;;;17.74;70.39;98964.56;4979715;28;20034;-62
2021/06/17 02:28:26;;;;;;;12.88;8.35;;;;;;;17.64;70.59;98962.81;4996457;28;20113;-62
2021/06/17 02:30:58;;;;;;;12.98;8.10;;;;;;;17.56;70.82;98971.63;4995847;28;20034;-62
2021/06/17 02:33:23;;;;;;;14.38;8.65;;;;;;;17.41;71.42;98964.53;5012729;28;20017;-62
2021/06/17 02:35:51;;;;;;;11.57;8.00;;;;;;;17.38;70.58;98963.22;4995620;28;20476;-62
2021/06/17 02:38:17;;;;;;;12.65;7.78;;;;;;;17.17;72.59;98975.41;5013682;28;20034;-62
2021/06/17 02:40:44;;;;;;;13.35;8.13;;;;;;;16.89;73.08;98964.41;4995604;28;20088;-62
2021/06/17 02:43:15;;;;;;;11.95;8.35;;;;;;;16.92;73.13;98961.13;4996130;28;20396;-62
2021/06/17 02:45:41;;;;;;;11.43;7.97;;;;;;;16.95;73.40;98963.28;5011895;28;20037;-62
2021/06/17 02:48:07;;;;;;;14.57;8.55;;;;;;;16.98;73.87;98962.69;5012159;28;20072;-62
2021/06/17 02:50:33;;;;;;;16.70;8.75;;;;;;;17.21;72.58;98971.03;5013060;28;20496;-62
2021/06/17 02:52:58;;;;;;;11.85;8.73;;;;;;;17.24;72.72;98970.44;5012212;28;20037;-62
2021/06/17 02:55:24;;;;;;;16.77;8.35;;;;;;;17.21;72.57;98968.31;5012806;28;20060;-62
2021/06/17 02:57:56;;;;;;;12.57;8.70;;;;;;;17.16;73.55;98965.69;4995901;28;20061;-62
2021/06/17 03:00:21;;;;;;;14.98;9.43;;;;;;;17.21;73.27;98962.91;5011468;28;20056;-62
2021/06/17 03:03:02;;;;;;;19.30;9.18;;;;;;;17.22;72.90;98967.22;5012216;28;20026;-62
2021/06/17 03:05:56;;;;;;;13.35;9.25;;;;;;;17.28;72.51;98966.06;5012935;28;20108;-62
2021/06/17 03:08:26;;;;;;;13.73;9.18;;;;;;;17.07;73.48;98964.72;5012036;28;20076;-62
2021/06/17 03:10:52;;;;;;;14.35;9.05;;;;;;;17.17;73.04;98970.00;5011618;28;20046;-62
2021/06/17 03:13:19;;;;;;;13.63;7.97;;;;;;;17.00;74.23;98971.31;4995369;28;20030;-62
2021/06/17 03:15:44;;;;;;;12.98;8.90;;;;;;;17.09;73.84;98957.13;5011267;28;20072;-62
2021/06/17 03:18:10;;;;;;;15.20;9.05;;;;;;;17.22;73.28;98950.97;5011789;28;20045;-62
2021/06/17 03:20:38;;;;;;;14.35;8.75;;;;;;;17.33;72.39;98967.91;5011329;28;20045;-63
2021/06/17 03:23:05;;;;;;;11.20;8.65;;;;;;;17.36;71.86;98973.53;5013206;28;20030;-62
2021/06/17 03:25:31;;;;;;;11.77;8.27;;;;;;;17.40;71.41;98974.56;4994964;28;20034;-62
2021/06/17 03:27:56;;;;;;;13.65;8.50;;;;;;;17.34;71.79;98967.59;4995317;28;20145;-62
2021/06/17 03:30:23;;;;;;;14.07;8.63;;;;;;;17.62;70.42;98967.72;5011313;28;20116;-62
2021/06/17 03:32:49;;;;;;;21.40;9.27;;;;;;;17.83;70.39;98970.94;5012893;28;20417;-62
2021/06/17 03:35:16;;;;;;;12.27;8.50;;;;;;;18.38;68.05;98962.13;5011494;28;20058;-62
2021/06/17 03:37:42;;;;;;;13.38;8.93;;;;;;;18.36;68.22;98972.47;5011793;28;20026;-62
2021/06/17 03:40:07;;;;;;;17.75;9.77;;;;;;;18.50;68.17;98973.28;4994874;28;20029;-62
2021/06/17 03:42:33;;;;;;;17.85;9.48;;;;;;;19.36;64.10;98972.59;5011784;28;20037;-62
2021/06/17 03:44:58;;;;;;;14.98;7.85;;;;;;;19.93;62.05;98975.63;5011682;28;20025;-62
2021/06/17 03:47:24;;;;;;;14.10;7.63;;;;;;;19.44;62.55;98974.56;5011047;28;20030;-62
2021/06/17 03:49:49;;;;;;;13.77;7.60;;;;;;;18.78;64.81;98973.31;5012790;28;20499;-62
2021/06/17 03:52:15;;;;;;;16.05;8.00;;;;;;;18.53;66.81;98978.91;5011134;28;20133;-62
2021/06/17 03:54:41;;;;;;;19.02;8.35;;;;;;;19.17;64.45;98979.00;5013044;28;20408;-62
2021/06/17 03:57:07;;;;;;;15.18;8.77;;;;;;;19.03;65.89;98980.91;5011148;28;20455;-62
2021/06/17 03:59:37;;;;;;;15.10;9.82;;;;;;;20.09;62.34;98988.81;4994999;28;20049;-62
2021/06/17 04:02:02;;;;;;;14.82;8.52;;;;;;;21.88;56.48;98991.88;5010353;28;20042;-62
2021/06/17 04:04:28;;;;;;;12.43;7.22;;;;;;;22.67;52.81;98998.75;5011727;28;20022;-62
2021/06/17 04:06:54;;;;;;;10.82;7.32;;;;;;;23.02;50.67;98988.47;5010958;28;20054;-62
2021/06/17 04:09:28;;;;;;;18.40;8.18;;;;;;;23.65;49.56;98984.94;5013029;28;20045;-62
2021/06/17 04:12:15;;;;;;;14.70;7.32;;;;;;;24.37;47.43;98982.78;5010871;28;20056;-63
2021/06/17 04:14:44;;;;;;;13.15;7.22;;;;;;;25.25;45.15;98985.22;5012595;28;20479;-62
2021/06/17 04:17:11;;;;;;;16.85;8.00;;;;;;;25.39;45.19;98983.72;5012211;28;20412;-63
2021/06/17 04:19:37;;;;;;;14.75;7.80;;;;;;;25.84;43.95;98979.09;4994874;28;20022;-62
2021/06/17 04:22:03;;;;;;;17.63;7.78;;;;;;;25.37;44.67;98982.47;5012255;28;20095;-62
2021/06/17 04:24:32;;;;;;;17.65;7.13;;;;;;;26.15;42.56;98983.84;5012611;28;20030;-62
2021/06/17 04:26:58;;;;;;;11.25;6.57;;;;;;;25.98;43.70;98982.22;4998185;28;20030;-63
2021/06/17 04:29:23;;;;;;;16.35;7.75;;;;;;;25.21;45.41;98985.13;5016204;28;20076;-63
2021/06/17 04:31:49;;;;;;;12.45;6.47;;;;;;;25.96;43.41;98979.06;4998302;28;20055;-63
2021/06/17 04:34:15;;;;;;;10.65;6.75;;;;;;;26.41;42.60;98977.88;5016228;28;20029;-63
2021/06/17 04:36:40;;;;;;;14.48;7.00;;;;;;;25.93;43.33;98984.44;5014371;28;20034;-61
2021/06/17 04:39:07;;;;;;;14.07;7.60;;;;;;;25.33;44.62;98984.28;4998319;28;20025;-61
2021/06/17 04:41:32;;;;;;;18.67;7.75;;;;;;;25.67;44.02;98993.91;5014095;28;20034;-61
2021/06/17 04:44:00;;;;;;;14.85;7.22;;;;;;;26.46;41.89;98985.84;5014800;28;20112;-61
2021/06/17 04:46:26;;;;;;;16.42;6.97;;;;;;;26.18;43.16;98979.59;5013999;28;20038;-61
2021/06/17 04:48:51;;;;;;;20.77;7.25;;;;;;;26.90;41.66;98983.00;5014729;28;20022;-61
2021/06/17 04:51:17;;;;;;;18.85;7.68;;;;;;;27.39;40.53;98983.72;4997838;28;20091;-61
2021/06/17 04:53:42;;;;;;;15.60;7.07;;;;;;;28.00;39.35;98988.47;5014715;28;20387;-61
2021/06/17 04:56:08;;;;;;;14.95;7.22;;;;;;;28.07;39.06;98996.88;5014055;28;20038;-61
2021/06/17 04:58:35;;;;;;;14.85;7.28;;;;;;;28.26;39.02;99000.78;5015718;28;20404;-61
2021/06/17 05:01:05;;;;;;;18.30;6.93;;;;;;;27.87;39.73;98998.06;5013768;28;20038;-61
2021/06/17 05:03:33;;;;;;;13.13;6.93;;;;;;;28.11;39.76;99000.50;5015591;28;20537;-62
2021/06/17 05:06:00;;;;;;;15.83;6.80;;;;;;;28.22;39.45;98999.91;5015031;28;20488;-62
2021/06/17 05:11:16;;;;;;;13.90;7.80;;;;;;;28.81;38.82;99004.88;4995334;28;20044;-62
2021/06/17 05:13:43;;;;;;;11.52;7.80;;;;;;;29.27;38.08;99003.22;5015745;28;20022;-63
2021/06/17 05:16:08;;;;;;;13.52;7.45;;;;;;;28.81;39.30;99004.09;5015054;28;20108;-63
2021/06/17 05:18:34;;;;;;;13.32;7.43;;;;;;;29.37;38.15;99006.09;5014273;28;20415;-63
2021/06/17 05:20:59;;;;;;;13.70;7.38;;;;;;;30.02;36.88;99013.22;5014623;28;20392;-62
2021/06/17 05:23:25;;;;;;;13.63;8.07;;;;;;;30.10;36.22;99005.81;5015320;28;20388;-63
2021/06/17 05:25:51;;;;;;;13.18;7.75;;;;;;;30.70;35.20;99010.34;5014637;28;20034;-63
2021/06/17 05:28:18;;;;;;;13.27;7.90;;;;;;;30.20;36.80;99007.09;5014209;28;20050;-63
2021/06/17 05:30:44;;;;;;;18.55;8.25;;;;;;;30.27;36.32;99005.22;5013332;28;20038;-62
2021/06/17 05:33:09;;;;;;;13.70;7.38;;;;;;;30.63;35.97;99000.03;5015046;28;20025;-63
2021/06/17 05:35:35;;;;;;;15.52;8.10;;;;;;;30.69;35.46;99008.75;5014814;28;20053;-63
2021/06/17 05:38:00;;;;;;;12.00;7.88;;;;;;;30.77;35.50;99012.38;5014126;28;20093;-63
2021/06/17 05:40:26;;;;;;;17.08;8.52;;;;;;;31.02;34.93;99010.59;5014337;28;20480;-63
2021/06/17 05:42:52;;;;;;;14.95;8.30;;;;;;;31.07;34.66;99006.69;5013478;28;20033;-63
2021/06/17 05:45:17;;;;;;;22.75;8.77;;;;;;;30.76;34.74;99017.13;5013038;28;20037;-63
2021/06/17 05:47:43;;;;;;;20.88;8.85;;;;;;;31.58;33.52;99017.69;5013361;28;20168;-63
2021/06/17 05:50:09;;;;;;;19.58;8.98;;;;;;;31.92;33.05;99022.94;5014144;28;20030;-63
2021/06/17 05:52:35;;;;;;;22.30;9.20;;;;;;;31.52;33.38;99027.53;5014631;28;20026;-63
2021/06/17 05:55:00;;;;;;;31.67;9.68;;;;;;;32.12;32.03;99019.84;5013574;28;20018;-62
2021/06/17 05:57:25;;;;;;;43.80;10.70;;;;;;;32.58;31.44;99027.50;5013789;28;20046;-63
2021/06/17 05:59:51;;;;;;;46.08;10.55;;;;;;;32.38;31.63;99024.28;5014310;28;20042;-63
2021/06/17 06:02:23;;;;;;;23.17;10.10;;;;;;;32.67;30.78;99027.88;5014060;28;20037;-63
2021/06/17 06:04:48;;;;;;;29.70;10.45;;;;;;;32.38;30.98;99022.28;5014292;28;20026;-63
2021/06/17 06:07:13;;;;;;;33.67;9.90;;;;;;;33.05;30.02;99028.25;5013788;28;20527;-62
2021/06/17 06:09:39;;;;;;;28.40;9.93;;;;;;;33.01;30.18;99019.94;5014456;28;20475;-63
2021/06/17 06:12:06;;;;;;;47.38;11.25;;;;;;;33.32;30.23;99027.81;5013759;28;20042;-63
2021/06/17 06:14:32;;;;;;;39.08;11.38;;;;;;;33.89;29.21;99027.63;5014684;28;20030;-63
2021/06/17 06:16:57;;;;;;;48.47;11.65;;;;;;;32.76;31.43;99017.19;5012348;28;20484;-63
2021/06/17 06:19:23;;;;;;;34.83;10.65;;;;;;;33.56;29.89;99013.09;5014007;28;20022;-63
2021/06/17 06:21:48;;;;;;;51.03;11.57;;;;;;;32.50;31.64;99014.78;5013694;28;20084;-63
2021/06/17 06:24:14;;;;;;;61.92;11.52;;;;;;;32.43;31.99;99021.09;5014144;28;20032;-63
2021/06/17 06:26:40;;;;;;;78.68;14.27;;;;;;;33.95;29.22;99014.91;5013130;28;20037;-63
2021/06/17 06:29:06;;;;;;;87.75;14.50;;;;;;;33.30;31.25;99019.91;5013978;28;20026;-63
2021/06/17 06:31:31;;;;;;;104.10;14.63;;;;;;;33.65;30.75;99027.38;5013395;28;20037;-63
2021/06/17 06:33:56;;;;;;;109.07;14.88;;;;;;;33.77;30.62;99030.88;5013661;28;20022;-63
2021/06/17 06:36:22;;;;;;;86.45;13.43;;;;;;;35.69;27.59;99036.13;5013527;28;20476;-63
2021/06/17 06:38:47;;;;;;;122.22;15.57;;;;;;;33.59;30.92;99025.41;5013904;28;20026;-63
2021/06/17 06:41:13;;;;;;;91.22;14.15;;;;;;;34.24;29.88;99031.44;5013405;28;20045;-63
2021/06/17 06:43:38;;;;;;;72.45;14.13;;;;;;;34.34;28.85;99036.94;5013798;28;20384;-64
2021/06/17 06:46:04;;;;;;;108.32;14.80;;;;;;;34.54;29.12;99044.75;5013367;28;20077;-63
2021/06/17 06:48:32;;;;;;;90.45;13.48;;;;;;;36.04;27.12;99046.03;5013456;28;20025;-66
2021/06/17 06:50:58;;;;;;;94.35;14.25;;;;;;;34.03;29.39;99043.47;5013224;28;20042;-63
2021/06/17 06:53:23;;;;;;;98.28;14.15;;;;;;;35.30;27.97;99045.72;5013671;28;20044;-63
2021/06/17 06:55:49;;;;;;;87.78;13.88;;;;;;;34.87;27.98;99043.31;5011874;28;20099;-64
2021/06/17 06:58:14;;;;;;;104.80;15.82;;;;;;;33.53;30.51;99033.34;5012305;28;20029;-63
2021/06/17 07:00:43;;;;;;;70.95;14.05;;;;;;;33.45;30.38;99031.75;5012917;28;20092;-63
2021/06/17 07:03:09;;;;;;;59.53;12.93;;;;;;;33.38;29.58;99031.78;5013301;28;20453;-63
2021/06/17 07:05:35;;;;;;;44.80;10.38;;;;;;;35.12;26.57;99039.53;5013178;28;20125;-63
2021/06/17 07:08:04;;;;;;;55.45;12.15;;;;;;;34.18;29.04;99044.22;5013587;28;20026;-63
2021/06/17 07:10:30;;;;;;;81.30;13.85;;;;;;;35.01;28.75;99054.31;5013115;28;20038;-63
2021/06/17 07:12:55;;;;;;;72.75;13.10;;;;;;;36.26;27.42;99049.34;5013152;28;20026;-63
2021/06/17 07:15:21;;;;;;;63.17;12.40;;;;;;;34.88;29.21;99049.69;5012994;28;20042;-63
2021/06/17 07:17:46;;;;;;;66.53;12.07;;;;;;;35.75;27.69;99056.78;5013168;28;20018;-63
2021/06/17 07:20:12;;;;;;;83.38;13.15;;;;;;;35.84;27.59;99062.63;5012874;28;20034;-63
2021/06/17 07:22:37;;;;;;;55.60;12.23;;;;;;;35.05;29.14;99050.72;5012125;28;20034;-63
2021/06/17 07:25:03;;;;;;;76.95;13.15;;;;;;;35.62;28.02;99050.16;5012820;28;20376;-63
2021/06/17 07:27:28;;;;;;;72.15;13.18;;;;;;;37.20;25.33;99050.69;5013089;28;20049;-63
2021/06/17 07:29:54;;;;;;;64.70;12.95;;;;;;;35.73;27.49;99059.19;5013156;28;20026;-63
2021/06/17 07:32:19;;;;;;;55.88;12.57;;;;;;;36.58;26.63;99053.69;5012607;28;20046;-63
2021/06/17 07:34:46;;;;;;;46.55;12.60;;;;;;;36.04;26.79;99062.75;5013325;28;20056;-63
2021/06/17 07:37:12;;;;;;;48.25;11.93;;;;;;;35.41;28.71;99060.31;5012677;28;20038;-63
2021/06/17 07:39:37;;;;;;;67.55;12.63;;;;;;;36.03;27.48;99075.13;5013076;28;20105;-63
2021/06/17 07:42:03;;;;;;;53.95;12.18;;;;;;;36.39;26.90;99073.88;5012693;28;20049;-63
2021/06/17 07:44:28;;;;;;;59.47;11.55;;;;;;;35.98;28.00;99077.63;5013177;28;20101;-63
2021/06/17 07:46:54;;;;;;;63.67;13.20;;;;;;;35.53;28.55;99077.72;5011581;28;20042;-63
2021/06/17 07:49:19;;;;;;;66.95;12.93;;;;;;;34.49;30.29;99059.09;5013007;28;20476;-62
2021/06/17 07:51:45;;;;;;;45.00;13.32;;;;;;;32.77;33.16;99049.28;5012521;28;20034;-63
2021/06/17 07:54:10;;;;;;;46.15;12.65;;;;;;;33.12;33.17;99042.13;5013044;28;20025;-63
2021/06/17 07:56:36;;;;;;;49.90;12.40;;;;;;;35.28;29.11;99037.00;5012773;28;20060;-62
2021/06/17 07:59:01;;;;;;;37.75;11.55;;;;;;;33.94;30.74;99035.56;5012632;28;20068;-62
2021/06/17 08:01:27;;;;;;;26.83;9.93;;;;;;;33.50;31.51;99031.38;5015414;28;20049;-62
2021/06/17 08:03:53;;;;;;;35.67;11.35;;;;;;;34.77;30.15;99031.09;5016712;28;20032;-62
2021/06/17 08:06:19;;;;;;;51.97;11.88;;;;;;;33.97;31.27;99048.63;5015275;28;20038;-63
2021/06/17 08:08:44;;;;;;;34.83;10.77;;;;;;;36.37;27.71;99046.41;5016662;28;20480;-63
2021/06/17 08:11:10;;;;;;;38.38;12.00;;;;;;;35.13;29.40;99041.13;5016198;28;20061;-63
2021/06/17 08:13:36;;;;;;;35.40;11.93;;;;;;;32.47;34.25;99032.19;5016706;28;20451;-63
2021/06/17 08:16:01;;;;;;;37.83;11.68;;;;;;;35.87;28.47;99038.69;5015681;28;20042;-63
2021/06/17 08:18:27;;;;;;;69.55;13.40;;;;;;;37.19;26.93;99040.69;5016673;28;20022;-63
2021/06/17 08:20:54;;;;;;;49.60;10.73;;;;;;;36.59;27.01;99040.50;5016133;28;20084;-63
2021/06/17 08:23:21;;;;;;;41.40;10.32;;;;;;;35.66;27.46;99044.56;5016565;28;20033;-63
2021/06/17 08:25:49;;;;;;;31.52;9.60;;;;;;;36.43;27.37;99044.72;5014541;28;20476;-62
2021/06/17 08:28:15;;;;;;;31.13;9.98;;;;;;;34.97;29.33;99033.28;5016349;28;20026;-63
2021/06/17 08:30:40;;;;;;;37.90;10.05;;;;;;;35.15;28.84;99033.16;5014448;28;20050;-63
2021/06/17 08:33:06;;;;;;;32.72;9.75;;;;;;;36.46;27.25;99046.66;5014866;28;20037;-63
2021/06/17 08:35:31;;;;;;;84.03;14.50;;;;;;;37.17;27.66;99037.53;5014678;28;20326;-63
2021/06/17 08:37:57;;;;;;;94.93;13.43;;;;;;;36.83;28.16;99030.16;5016292;28;20022;-63
2021/06/17 08:40:28;;;;;;;72.72;12.75;;;;;;;37.18;28.06;99039.13;5014215;28;20472;-63
2021/06/17 08:42:54;;;;;;;106.38;14.60;;;;;;;36.77;28.71;99032.66;5016192;28;20101;-62
2021/06/17 08:45:19;;;;;;;105.03;15.20;;;;;;;36.88;28.54;99041.63;5014298;28;20030;-63
2021/06/17 08:47:46;;;;;;;85.32;14.68;;;;;;;37.31;28.09;99037.28;5016237;28;20566;-63
2021/06/17 08:50:12;;;;;;;88.47;13.45;;;;;;;36.47;28.94;99036.28;5015375;28;20029;-62
2021/06/17 08:52:41;;;;;;;77.78;13.38;;;;;;;36.58;28.59;99031.34;5015764;28;20033;-62
2021/06/17 08:55:21;;;;;;;62.13;13.25;;;;;;;35.01;31.37;99025.69;5014169;28;20030;-62
2021/06/17 08:57:49;;;;;;;51.72;12.55;;;;;;;35.76;30.31;99016.53;5014379;28;20500;-62
2021/06/17 09:00:14;;;;;;;70.65;12.32;;;;;;;35.11;31.50;99015.69;5015231;28;20058;-62
2021/06/17 09:02:39;;;;;;;40.38;12.15;;;;;;;35.19;31.14;99019.97;5015809;28;20480;-62
2021/06/17 09:05:15;;;;;;;50.10;12.25;;;;;;;36.16;29.37;99027.19;5015538;28;20022;-62
2021/06/17 09:07:41;;;;;;;54.80;12.57;;;;;;;36.38;29.54;99011.72;5015504;28;20022;-62
2021/06/17 09:10:10;;;;;;;45.58;11.77;;;;;;;36.65;27.71;99017.28;4997668;28;20373;-62
2021/06/17 09:12:42;;;;;;;40.97;11.77;;;;;;;36.45;29.23;99027.56;5012836;28;20025;-62
2021/06/17 09:15:08;;;;;;;57.78;12.05;;;;;;;36.54;29.47;99019.41;5014974;28;20057;-62
2021/06/17 09:17:33;;;;;;;59.42;11.70;;;;;;;37.33;28.08;99012.50;5015353;28;20445;-62
2021/06/17 09:19:59;;;;;;;60.33;11.60;;;;;;;36.85;28.26;99016.56;5015352;28;20034;-62
2021/06/17 09:22:26;;;;;;;48.80;11.07;;;;;;;37.17;27.84;99015.19;5014755;28;20124;-62
2021/06/17 09:24:52;;;;;;;34.20;10.15;;;;;;;36.22;27.06;99014.34;5014983;28;20391;-62
2021/06/17 09:27:23;;;;;;;38.63;10.70;;;;;;;34.41;30.64;99001.94;5014668;28;20472;-62
2021/06/17 09:29:49;;;;;;;35.97;10.82;;;;;;;34.89;30.02;99010.28;5015079;28;20022;-62
2021/06/17 09:32:25;;;;;;;40.05;10.52;;;;;;;35.99;27.75;99001.09;5014579;28;20125;-62
2021/06/17 09:34:50;;;;;;;25.38;10.18;;;;;;;36.42;27.00;98994.91;5014916;28;20459;-62
2021/06/17 09:37:32;;;;;;;31.13;9.95;;;;;;;37.47;26.36;98995.44;5014851;28;20034;-62
2021/06/17 09:39:58;;;;;;;32.13;10.25;;;;;;;37.48;26.44;98996.22;5015224;28;20022;-62
2021/06/17 09:42:31;;;;;;;42.03;11.18;;;;;;;36.69;26.56;99001.28;5014719;28;20046;-62
2021/06/17 09:44:58;;;;;;;25.05;9.95;;;;;;;35.31;29.09;99005.50;5015369;28;20058;-62
2021/06/17 09:47:25;;;;;;;28.53;9.13;;;;;;;34.43;29.12;98996.75;5014768;28;20045;-63
2021/06/17 09:49:56;;;;;;;20.65;9.05;;;;;;;35.66;27.07;99006.31;5014553;28;20021;-62
2021/06/17 09:52:36;;;;;;;18.02;9.02;;;;;;;34.95;28.57;98999.50;5014199;28;20459;-62
2021/06/17 09:55:01;;;;;;;19.58;9.13;;;;;;;35.79;27.49;99004.53;5014511;28;20021;-63
2021/06/17 09:57:28;;;;;;;22.50;9.27;;;;;;;35.56;28.12;99001.66;5014832;28;20040;-62
2021/06/17 09:59:55;;;;;;;21.73;9.48;;;;;;;34.67;29.54;98998.56;4996975;28;20045;-62
2021/06/17 10:02:29;;;;;;;18.73;10.20;;;;;;;34.49;29.82;98981.97;5014539;28;20456;-62
2021/06/17 10:05:19;;;;;;;14.75;9.38;;;;;;;35.56;28.25;98990.50;5014802;28;20041;-62
2021/06/17 10:07:44;;;;;;;14.77;9.50;;;;;;;33.36;30.76;98979.41;5014426;28;20054;-62
2021/06/17 10:10:12;;;;;;;19.77;9.82;;;;;;;32.86;32.16;98971.97;5012616;28;20022;-62
2021/06/17 10:12:37;;;;;;;18.40;10.18;;;;;;;33.98;31.58;98974.41;5014365;28;20030;-62
2021/06/17 10:15:03;;;;;;;18.48;10.50;;;;;;;34.05;30.11;98972.34;5013918;28;20022;-63
2021/06/17 10:17:29;;;;;;;18.73;10.55;;;;;;;33.08;32.30;98969.19;5014239;28;20479;-62
2021/06/17 10:19:56;;;;;;;18.17;10.32;;;;;;;33.18;32.87;98962.81;5014233;28;20033;-62
2021/06/17 10:22:28;;;;;;;21.58;9.75;;;;;;;33.27;32.90;98957.63;5013761;28;20345;-62
2021/06/17 10:24:54;;;;;;;19.88;10.15;;;;;;;33.23;32.79;98962.41;5012799;28;20120;-62
2021/06/17 10:27:35;;;;;;;17.67;10.23;;;;;;;33.12;33.28;98964.41;5012410;28;20038;-63
2021/06/17 10:30:01;;;;;;;15.00;10.20;;;;;;;32.31;34.25;98955.72;5013225;28;20033;-62
2021/06/17 10:32:43;;;;;;;16.63;10.65;;;;;;;33.51;32.52;98963.50;5012401;28;20149;-62
2021/06/17 10:35:09;;;;;;;22.15;11.13;;;;;;;32.58;34.02;98958.94;5013600;28;20026;-62
2021/06/17 10:37:48;;;;;;;17.98;11.30;;;;;;;31.98;34.64;98966.00;5013804;28;20026;-62
2021/06/17 10:40:14;;;;;;;19.23;12.45;;;;;;;31.83;35.10;98958.00;5013675;28;20030;-62
2021/06/17 10:42:46;;;;;;;22.77;11.27;;;;;;;33.62;32.25;98961.47;5014316;28;20404;-62
2021/06/17 10:45:32;;;;;;;19.83;10.93;;;;;;;32.86;33.57;98966.41;5011813;28;20117;-62
2021/06/17 10:48:11;;;;;;;18.20;11.98;;;;;;;32.52;34.01;98962.50;5013830;28;20076;-62
2021/06/17 10:50:51;;;;;;;20.45;11.95;;;;;;;32.99;33.52;98968.78;5013748;28;20387;-62
2021/06/17 10:53:32;;;;;;;27.05;12.80;;;;;;;32.40;34.13;98960.88;5013689;28;20034;-62
2021/06/17 10:56:01;;;;;;;19.10;11.88;;;;;;;32.96;32.79;98961.25;5013234;28;20038;-62
2021/06/17 10:58:42;;;;;;;20.38;12.55;;;;;;;32.69;33.71;98953.38;5013547;28;20058;-62
2021/06/17 11:01:26;;;;;;;22.30;12.05;;;;;;;33.82;33.38;98966.53;5013121;28;20042;-62
2021/06/17 11:03:58;;;;;;;25.40;13.80;;;;;;;34.09;30.98;98970.34;5012295;28;20071;-62
2021/06/17 11:06:23;;;;;;;22.45;13.55;;;;;;;32.91;31.17;98968.00;5013138;28;20042;-62
2021/06/17 11:08:49;;;;;;;21.08;14.65;;;;;;;32.69;31.29;98958.13;5013478;28;20025;-62
2021/06/17 11:11:14;;;;;;;21.92;14.43;;;;;;;33.35;31.04;98958.41;5011941;28;20046;-62
2021/06/17 11:13:41;;;;;;;25.80;14.70;;;;;;;33.46;30.97;98961.13;5012440;28;20034;-62
2021/06/17 11:16:13;;;;;;;24.17;14.57;;;;;;;31.95;32.80;98969.56;5013293;28;20038;-62
2021/06/17 11:18:57;;;;;;;33.78;15.32;;;;;;;33.98;29.34;98955.72;5013878;28;20061;-62
2021/06/17 11:21:26;;;;;;;21.67;13.77;;;;;;;33.43;31.32;98950.84;5013173;28;20038;-62
2021/06/17 11:23:52;;;;;;;21.77;13.70;;;;;;;34.09;30.45;98956.47;5013863;28;20033;-62
2021/06/17 11:26:47;;;;;;;27.77;13.93;;;;;;;34.66;28.93;98960.81;5013119;28;20048;-62